sensor_id;sensor_type;location;lat;lon;timestamp;temperature;humidity
4090;DHT22;2059;48.538;12.146;2022-09-14T00:00:49;18.90;99.90
4090;DHT22;2059;48.538;12.146;2022-09-14T00:05:52;18.80;99.90
4090;DHT22;2059;48.538;12.146;2022-09-14T00:10:54;18.90;99.90
4090;DHT22;2059;48.538;12.146;2022-09-14T00:15:55;18.90;99.90
4090;DHT22;2059;48.538;12.146;2022-09-14T00:21:03;18.90;99.90
4090;DHT22;2059;48.538;12.146;2022-09-14T00:26:06;18.90;99.90
4090;DHT22;2059;48.538;12.146;2022-09-14T00:31:08;19.00;99.90
4090;DHT22;2059;48.538;12.146;2022-09-14T00:36:14;18.90;99.90
4090;DHT22;2059;48.538;12.146;2022-09-14T00:41:19;18.90;99.90
4090;DHT22;2059;48.538;12.146;2022-09-14T00:46:22;18.90;99.90
4090;DHT22;2059;48.538;12.146;2022-09-14T00:51:27;18.80;99.90
4090;DHT22;2059;48.538;12.146;2022-09-14T00:56:29;18.80;99.90
4090;DHT22;2059;48.538;12.146;2022-09-14T01:01:31;18.90;99.90
4090;DHT22;2059;48.538;12.146;2022-09-14T01:06:39;18.80;99.90
4090;DHT22;2059;48.538;12.146;2022-09-14T01:11:57;18.80;99.90
4090;DHT22;2059;48.538;12.146;2022-09-14T01:17:06;18.80;99.90
4090;DHT22;2059;48.538;12.146;2022-09-14T01:22:17;18.80;99.90
4090;DHT22;2059;48.538;12.146;2022-09-14T01:27:25;18.80;99.90
4090;DHT22;2059;48.538;12.146;2022-09-14T01:32:31;18.70;99.90
4090;DHT22;2059;48.538;12.146;2022-09-14T01:37:39;18.80;99.90
4090;DHT22;2059;48.538;12.146;2022-09-14T01:42:47;18.70;99.90
4090;DHT22;2059;48.538;12.146;2022-09-14T01:47:53;18.80;99.90
4090;DHT22;2059;48.538;12.146;2022-09-14T01:52:59;18.70;99.90
4090;DHT22;2059;48.538;12.146;2022-09-14T01:58:06;18.70;99.90
4090;DHT22;2059;48.538;12.146;2022-09-14T02:03:12;18.80;99.90
4090;DHT22;2059;48.538;12.146;2022-09-14T02:08:15;18.80;99.90
4090;DHT22;2059;48.538;12.146;2022-09-14T02:13:19;18.90;99.90
4090;DHT22;2059;48.538;12.146;2022-09-14T02:18:20;18.80;99.90
4090;DHT22;2059;48.538;12.146;2022-09-14T02:23:23;18.80;99.90
4090;DHT22;2059;48.538;12.146;2022-09-14T02:28:26;18.90;99.90
4090;DHT22;2059;48.538;12.146;2022-09-14T02:33:34;18.80;99.90
4090;DHT22;2059;48.538;12.146;2022-09-14T02:38:45;18.80;99.90
4090;DHT22;2059;48.538;12.146;2022-09-14T02:43:57;18.80;99.90
4090;DHT22;2059;48.538;12.146;2022-09-14T02:49:05;18.70;99.90
4090;DHT22;2059;48.538;12.146;2022-09-14T02:54:12;18.70;99.90
4090;DHT22;2059;48.538;12.146;2022-09-14T02:59:16;18.70;99.90
4090;DHT22;2059;48.538;12.146;2022-09-14T03:04:19;18.70;99.90
4090;DHT22;2059;48.538;12.146;2022-09-14T03:09:20;18.70;99.90
4090;DHT22;2059;48.538;12.146;2022-09-14T03:14:23;18.70;99.90
4090;DHT22;2059;48.538;12.146;2022-09-14T03:19:25;18.70;99.90
4090;DHT22;2059;48.538;12.146;2022-09-14T03:24:27;18.70;99.90
4090;DHT22;2059;48.538;12.146;2022-09-14T03:29:30;18.70;99.90
4090;DHT22;2059;48.538;12.146;2022-09-14T03:34:32;18.70;99.90
4090;DHT22;2059;48.538;12.146;2022-09-14T03:39:33;18.70;99.90
4090;DHT22;2059;48.538;12.146;2022-09-14T03:44:37;18.60;99.90
4090;DHT22;2059;48.538;12.146;2022-09-14T03:49:38;18.60;99.90
4090;DHT22;2059;48.538;12.146;2022-09-14T03:54:40;18.70;99.90
4090;DHT22;2059;48.538;12.146;2022-09-14T03:59:43;18.70;99.90
4090;DHT22;2059;48.538;12.146;2022-09-14T04:04:45;18.70;99.90
4090;DHT22;2059;48.538;12.146;2022-09-14T04:09:48;18.70;99.90
4090;DHT22;2059;48.538;12.146;2022-09-14T04:14:51;18.80;99.90
4090;DHT22;2059;48.538;12.146;2022-09-14T04:19:52;18.70;99.90
4090;DHT22;2059;48.538;12.146;2022-09-14T04:24:54;18.70;99.90
4090;DHT22;2059;48.538;12.146;2022-09-14T04:29:57;18.60;99.90
4090;DHT22;2059;48.538;12.146;2022-09-14T04:34:59;18.70;99.90
4090;DHT22;2059;48.538;12.146;2022-09-14T04:40:01;18.70;99.90
4090;DHT22;2059;48.538;12.146;2022-09-14T04:45:05;18.60;99.90
4090;DHT22;2059;48.538;12.146;2022-09-14T04:50:08;18.60;99.90
4090;DHT22;2059;48.538;12.146;2022-09-14T04:55:10;18.70;99.90
4090;DHT22;2059;48.538;12.146;2022-09-14T05:00:13;18.70;99.90
4090;DHT22;2059;48.538;12.146;2022-09-14T05:05:15;18.70;99.90
4090;DHT22;2059;48.538;12.146;2022-09-14T05:10:17;18.70;99.90
4090;DHT22;2059;48.538;12.146;2022-09-14T05:15:20;18.70;99.90
4090;DHT22;2059;48.538;12.146;2022-09-14T05:20:22;18.60;99.90
4090;DHT22;2059;48.538;12.146;2022-09-14T05:25:23;18.70;99.90
4090;DHT22;2059;48.538;12.146;2022-09-14T05:30:27;18.70;99.90
4090;DHT22;2059;48.538;12.146;2022-09-14T05:35:29;18.70;99.90
4090;DHT22;2059;48.538;12.146;2022-09-14T05:40:31;18.80;99.90
4090;DHT22;2059;48.538;12.146;2022-09-14T05:45:34;18.80;99.90
4090;DHT22;2059;48.538;12.146;2022-09-14T05:50:36;18.90;99.90
4090;DHT22;2059;48.538;12.146;2022-09-14T05:55:37;19.00;99.90
4090;DHT22;2059;48.538;12.146;2022-09-14T06:00:41;19.00;99.90
4090;DHT22;2059;48.538;12.146;2022-09-14T06:05:42;19.10;99.90
4090;DHT22;2059;48.538;12.146;2022-09-14T06:10:44;19.10;99.90
4090;DHT22;2059;48.538;12.146;2022-09-14T06:15:47;19.20;99.90
4090;DHT22;2059;48.538;12.146;2022-09-14T06:20:49;19.20;99.90
4090;DHT22;2059;48.538;12.146;2022-09-14T06:25:52;19.20;99.90
4090;DHT22;2059;48.538;12.146;2022-09-14T06:30:56;19.30;99.90
4090;DHT22;2059;48.538;12.146;2022-09-14T06:35:59;19.30;99.90
4090;DHT22;2059;48.538;12.146;2022-09-14T06:41:03;19.20;99.90
4090;DHT22;2059;48.538;12.146;2022-09-14T06:46:11;19.30;99.90
4090;DHT22;2059;48.538;12.146;2022-09-14T06:51:16;19.30;99.90
4090;DHT22;2059;48.538;12.146;2022-09-14T06:56:18;19.40;99.90
4090;DHT22;2059;48.538;12.146;2022-09-14T07:01:21;19.50;99.90
4090;DHT22;2059;48.538;12.146;2022-09-14T07:06:24;19.60;99.90
4090;DHT22;2059;48.538;12.146;2022-09-14T07:11:26;19.50;99.90
4090;DHT22;2059;48.538;12.146;2022-09-14T07:16:31;19.60;99.90
4090;DHT22;2059;48.538;12.146;2022-09-14T07:21:34;19.80;99.90
4090;DHT22;2059;48.538;12.146;2022-09-14T07:26:38;19.80;99.90
4090;DHT22;2059;48.538;12.146;2022-09-14T07:31:46;20.00;99.90
4090;DHT22;2059;48.538;12.146;2022-09-14T07:36:48;20.00;99.90
4090;DHT22;2059;48.538;12.146;2022-09-14T07:41:50;20.30;99.90
4090;DHT22;2059;48.538;12.146;2022-09-14T07:46:53;20.50;99.90
4090;DHT22;2059;48.538;12.146;2022-09-14T07:51:55;20.70;99.90
4090;DHT22;2059;48.538;12.146;2022-09-14T07:56:57;20.80;99.90
4090;DHT22;2059;48.538;12.146;2022-09-14T08:02:00;20.80;99.90
4090;DHT22;2059;48.538;12.146;2022-09-14T08:07:02;21.00;99.90
4090;DHT22;2059;48.538;12.146;2022-09-14T08:12:04;21.10;99.90
4090;DHT22;2059;48.538;12.146;2022-09-14T08:17:07;21.20;99.90
4090;DHT22;2059;48.538;12.146;2022-09-14T08:22:10;21.40;99.90
4090;DHT22;2059;48.538;12.146;2022-09-14T08:27:11;21.70;99.90
4090;DHT22;2059;48.538;12.146;2022-09-14T08:32:15;21.80;99.90
4090;DHT22;2059;48.538;12.146;2022-09-14T08:37:17;22.00;99.90
4090;DHT22;2059;48.538;12.146;2022-09-14T08:42:20;22.20;99.90
4090;DHT22;2059;48.538;12.146;2022-09-14T08:47:28;22.40;99.90
4090;DHT22;2059;48.538;12.146;2022-09-14T08:52:33;22.70;99.90
4090;DHT22;2059;48.538;12.146;2022-09-14T08:57:41;22.70;99.90
4090;DHT22;2059;48.538;12.146;2022-09-14T09:02:59;22.70;99.90
4090;DHT22;2059;48.538;12.146;2022-09-14T09:08:11;22.70;99.90
4090;DHT22;2059;48.538;12.146;2022-09-14T09:13:16;23.00;99.90
4090;DHT22;2059;48.538;12.146;2022-09-14T09:18:27;23.10;99.90
4090;DHT22;2059;48.538;12.146;2022-09-14T09:23:33;23.30;99.90
4090;DHT22;2059;48.538;12.146;2022-09-14T09:28:41;23.40;99.90
4090;DHT22;2059;48.538;12.146;2022-09-14T09:33:48;23.90;99.90
4090;DHT22;2059;48.538;12.146;2022-09-14T09:38:50;24.10;99.90
4090;DHT22;2059;48.538;12.146;2022-09-14T09:44:00;24.30;99.90
4090;DHT22;2059;48.538;12.146;2022-09-14T09:49:13;24.50;99.90
4090;DHT22;2059;48.538;12.146;2022-09-14T09:54:22;24.50;99.90
4090;DHT22;2059;48.538;12.146;2022-09-14T09:59:30;24.40;99.90
4090;DHT22;2059;48.538;12.146;2022-09-14T10:04:36;24.50;99.90
4090;DHT22;2059;48.538;12.146;2022-09-14T10:09:38;24.60;99.90
4090;DHT22;2059;48.538;12.146;2022-09-14T10:14:39;24.90;99.90
4090;DHT22;2059;48.538;12.146;2022-09-14T10:19:47;25.60;99.90
4090;DHT22;2059;48.538;12.146;2022-09-14T10:24:53;25.90;99.90
4090;DHT22;2059;48.538;12.146;2022-09-14T10:29:55;25.70;99.90
4090;DHT22;2059;48.538;12.146;2022-09-14T10:34:59;25.80;99.90
4090;DHT22;2059;48.538;12.146;2022-09-14T10:40:10;26.20;99.90
4090;DHT22;2059;48.538;12.146;2022-09-14T10:45:18;26.30;99.90
4090;DHT22;2059;48.538;12.146;2022-09-14T10:50:35;26.20;99.90
4090;DHT22;2059;48.538;12.146;2022-09-14T10:55:44;26.30;99.90
4090;DHT22;2059;48.538;12.146;2022-09-14T11:00:58;26.80;99.90
4090;DHT22;2059;48.538;12.146;2022-09-14T11:06:10;26.80;99.10
4090;DHT22;2059;48.538;12.146;2022-09-14T11:11:28;27.10;99.00
4090;DHT22;2059;48.538;12.146;2022-09-14T11:16:48;27.10;98.40
4090;DHT22;2059;48.538;12.146;2022-09-14T11:22:02;26.70;98.60
4090;DHT22;2059;48.538;12.146;2022-09-14T11:27:13;26.30;98.60
4090;DHT22;2059;48.538;12.146;2022-09-14T11:32:21;26.40;98.90
4090;DHT22;2059;48.538;12.146;2022-09-14T11:37:31;26.60;99.30
4090;DHT22;2059;48.538;12.146;2022-09-14T11:42:42;26.90;98.80
4090;DHT22;2059;48.538;12.146;2022-09-14T11:47:48;27.40;98.40
4090;DHT22;2059;48.538;12.146;2022-09-14T11:53:01;27.60;98.00
4090;DHT22;2059;48.538;12.146;2022-09-14T11:58:05;27.90;97.80
4090;DHT22;2059;48.538;12.146;2022-09-14T12:03:17;27.70;97.60
4090;DHT22;2059;48.538;12.146;2022-09-14T12:08:44;27.30;98.20
4090;DHT22;2059;48.538;12.146;2022-09-14T12:13:47;27.20;98.10
4090;DHT22;2059;48.538;12.146;2022-09-14T12:18:54;27.00;98.70
4090;DHT22;2059;48.538;12.146;2022-09-14T12:24:12;27.60;97.60
4090;DHT22;2059;48.538;12.146;2022-09-14T12:29:30;27.90;97.60
4090;DHT22;2059;48.538;12.146;2022-09-14T12:34:32;27.80;98.30
4090;DHT22;2059;48.538;12.146;2022-09-14T12:39:35;28.10;97.10
4090;DHT22;2059;48.538;12.146;2022-09-14T12:44:38;28.00;97.30
4090;DHT22;2059;48.538;12.146;2022-09-14T12:49:40;28.10;98.00
4090;DHT22;2059;48.538;12.146;2022-09-14T12:54:54;28.20;97.70
4090;DHT22;2059;48.538;12.146;2022-09-14T13:00:05;28.10;97.90
4090;DHT22;2059;48.538;12.146;2022-09-14T13:05:13;27.80;97.80
4090;DHT22;2059;48.538;12.146;2022-09-14T13:10:21;27.70;98.40
4090;DHT22;2059;48.538;12.146;2022-09-14T13:15:25;27.70;98.30
4090;DHT22;2059;48.538;12.146;2022-09-14T13:20:28;27.60;98.00
4090;DHT22;2059;48.538;12.146;2022-09-14T13:25:33;27.30;98.50
4090;DHT22;2059;48.538;12.146;2022-09-14T13:30:35;27.10;98.80
4090;DHT22;2059;48.538;12.146;2022-09-14T13:35:42;26.90;99.10
4090;DHT22;2059;48.538;12.146;2022-09-14T13:40:48;26.80;99.40
4090;DHT22;2059;48.538;12.146;2022-09-14T13:45:51;26.70;99.70
4090;DHT22;2059;48.538;12.146;2022-09-14T13:50:53;26.70;99.70
4090;DHT22;2059;48.538;12.146;2022-09-14T13:55:56;26.80;99.80
4090;DHT22;2059;48.538;12.146;2022-09-14T14:00:59;26.80;99.80
4090;DHT22;2059;48.538;12.146;2022-09-14T14:06:18;26.80;99.70
4090;DHT22;2059;48.538;12.146;2022-09-14T14:11:28;26.80;99.90
4090;DHT22;2059;48.538;12.146;2022-09-14T14:16:30;26.70;99.90
4090;DHT22;2059;48.538;12.146;2022-09-14T14:21:33;26.60;99.90
4090;DHT22;2059;48.538;12.146;2022-09-14T14:26:36;26.60;99.90
4090;DHT22;2059;48.538;12.146;2022-09-14T14:31:37;26.50;99.90
4090;DHT22;2059;48.538;12.146;2022-09-14T14:36:39;26.40;99.90
4090;DHT22;2059;48.538;12.146;2022-09-14T14:41:42;26.40;99.90
4090;DHT22;2059;48.538;12.146;2022-09-14T14:46:44;26.30;99.90
4090;DHT22;2059;48.538;12.146;2022-09-14T14:51:47;26.20;99.90
4090;DHT22;2059;48.538;12.146;2022-09-14T14:56:50;26.10;99.90
4090;DHT22;2059;48.538;12.146;2022-09-14T15:01:53;25.90;99.90
4090;DHT22;2059;48.538;12.146;2022-09-14T15:06:55;25.80;99.90
4090;DHT22;2059;48.538;12.146;2022-09-14T15:11:58;25.60;99.90
4090;DHT22;2059;48.538;12.146;2022-09-14T15:17:00;25.50;99.90
4090;DHT22;2059;48.538;12.146;2022-09-14T15:22:02;25.40;99.90
4090;DHT22;2059;48.538;12.146;2022-09-14T15:27:05;24.30;99.90
4090;DHT22;2059;48.538;12.146;2022-09-14T15:32:07;23.10;99.90
4090;DHT22;2059;48.538;12.146;2022-09-14T15:37:08;22.20;99.90
4090;DHT22;2059;48.538;12.146;2022-09-14T15:42:12;21.80;99.90
4090;DHT22;2059;48.538;12.146;2022-09-14T15:47:14;21.40;99.90
4090;DHT22;2059;48.538;12.146;2022-09-14T15:52:15;21.10;99.90
4090;DHT22;2059;48.538;12.146;2022-09-14T15:57:18;20.70;99.90
4090;DHT22;2059;48.538;12.146;2022-09-14T16:02:20;20.80;99.90
4090;DHT22;2059;48.538;12.146;2022-09-14T16:07:22;20.60;99.90
4090;DHT22;2059;48.538;12.146;2022-09-14T16:12:25;20.70;99.90
4090;DHT22;2059;48.538;12.146;2022-09-14T16:17:27;20.70;99.90
4090;DHT22;2059;48.538;12.146;2022-09-14T16:22:29;20.70;99.90
4090;DHT22;2059;48.538;12.146;2022-09-14T16:27:33;20.60;99.90
4090;DHT22;2059;48.538;12.146;2022-09-14T16:32:34;20.60;99.90
4090;DHT22;2059;48.538;12.146;2022-09-14T16:37:36;20.60;99.90
4090;DHT22;2059;48.538;12.146;2022-09-14T16:42:39;20.70;99.90
4090;DHT22;2059;48.538;12.146;2022-09-14T16:47:42;20.60;99.90
4090;DHT22;2059;48.538;12.146;2022-09-14T16:52:44;20.50;99.90
4090;DHT22;2059;48.538;12.146;2022-09-14T16:57:47;20.60;99.90
4090;DHT22;2059;48.538;12.146;2022-09-14T17:02:50;20.70;99.90
4090;DHT22;2059;48.538;12.146;2022-09-14T17:07:52;20.80;99.90
4090;DHT22;2059;48.538;12.146;2022-09-14T17:12:55;20.80;99.90
4090;DHT22;2059;48.538;12.146;2022-09-14T17:17:57;20.80;99.90
4090;DHT22;2059;48.538;12.146;2022-09-14T17:22:58;20.80;99.90
4090;DHT22;2059;48.538;12.146;2022-09-14T17:28:02;20.80;99.90
4090;DHT22;2059;48.538;12.146;2022-09-14T17:33:03;20.80;99.90
4090;DHT22;2059;48.538;12.146;2022-09-14T17:38:05;20.80;99.90
4090;DHT22;2059;48.538;12.146;2022-09-14T17:43:09;20.70;99.90
4090;DHT22;2059;48.538;12.146;2022-09-14T17:48:11;20.70;99.90
4090;DHT22;2059;48.538;12.146;2022-09-14T17:53:12;20.60;99.90
4090;DHT22;2059;48.538;12.146;2022-09-14T17:58:15;20.60;99.90
4090;DHT22;2059;48.538;12.146;2022-09-14T18:03:17;20.60;99.90
4090;DHT22;2059;48.538;12.146;2022-09-14T18:08:19;20.50;99.90
4090;DHT22;2059;48.538;12.146;2022-09-14T18:13:22;20.50;99.90
4090;DHT22;2059;48.538;12.146;2022-09-14T18:18:24;20.40;99.90
4090;DHT22;2059;48.538;12.146;2022-09-14T18:23:26;20.50;99.90
4090;DHT22;2059;48.538;12.146;2022-09-14T18:28:29;20.50;99.90
4090;DHT22;2059;48.538;12.146;2022-09-14T18:33:31;20.40;99.90
4090;DHT22;2059;48.538;12.146;2022-09-14T18:38:33;20.50;99.90
4090;DHT22;2059;48.538;12.146;2022-09-14T18:43:36;20.40;99.90
4090;DHT22;2059;48.538;12.146;2022-09-14T18:48:39;20.40;99.90
4090;DHT22;2059;48.538;12.146;2022-09-14T18:53:43;20.40;99.90
4090;DHT22;2059;48.538;12.146;2022-09-14T18:58:46;20.30;99.90
4090;DHT22;2059;48.538;12.146;2022-09-14T19:03:48;20.30;99.90
4090;DHT22;2059;48.538;12.146;2022-09-14T19:08:50;20.30;99.90
4090;DHT22;2059;48.538;12.146;2022-09-14T19:13:56;20.30;99.90
4090;DHT22;2059;48.538;12.146;2022-09-14T19:18:57;20.20;99.90
4090;DHT22;2059;48.538;12.146;2022-09-14T19:24:01;20.20;99.90
4090;DHT22;2059;48.538;12.146;2022-09-14T19:29:05;20.20;99.90
4090;DHT22;2059;48.538;12.146;2022-09-14T19:34:09;20.10;99.90
4090;DHT22;2059;48.538;12.146;2022-09-14T19:39:11;20.10;99.90
4090;DHT22;2059;48.538;12.146;2022-09-14T19:44:14;20.10;99.90
4090;DHT22;2059;48.538;12.146;2022-09-14T19:49:17;20.00;99.90
4090;DHT22;2059;48.538;12.146;2022-09-14T19:54:20;20.00;99.90
4090;DHT22;2059;48.538;12.146;2022-09-14T19:59:23;20.10;99.90
4090;DHT22;2059;48.538;12.146;2022-09-14T20:04:25;20.10;99.90
4090;DHT22;2059;48.538;12.146;2022-09-14T20:09:27;20.10;99.90
4090;DHT22;2059;48.538;12.146;2022-09-14T20:14:30;20.00;99.90
4090;DHT22;2059;48.538;12.146;2022-09-14T20:19:32;20.00;99.90
4090;DHT22;2059;48.538;12.146;2022-09-14T20:24:35;20.00;99.90
4090;DHT22;2059;48.538;12.146;2022-09-14T20:29:38;20.00;99.90
4090;DHT22;2059;48.538;12.146;2022-09-14T20:34:40;20.00;99.90
4090;DHT22;2059;48.538;12.146;2022-09-14T20:39:42;19.90;99.90
4090;DHT22;2059;48.538;12.146;2022-09-14T20:44:45;20.00;99.90
4090;DHT22;2059;48.538;12.146;2022-09-14T20:49:47;20.00;99.90
4090;DHT22;2059;48.538;12.146;2022-09-14T20:54:49;20.00;99.90
4090;DHT22;2059;48.538;12.146;2022-09-14T20:59:52;20.00;99.90
4090;DHT22;2059;48.538;12.146;2022-09-14T21:04:53;19.90;99.90
4090;DHT22;2059;48.538;12.146;2022-09-14T21:09:55;19.90;99.90
4090;DHT22;2059;48.538;12.146;2022-09-14T21:14:58;19.90;99.90
4090;DHT22;2059;48.538;12.146;2022-09-14T21:20:00;19.90;99.90
4090;DHT22;2059;48.538;12.146;2022-09-14T21:25:03;19.80;99.90
4090;DHT22;2059;48.538;12.146;2022-09-14T21:30:07;19.80;99.90
4090;DHT22;2059;48.538;12.146;2022-09-14T21:35:09;19.80;99.90
4090;DHT22;2059;48.538;12.146;2022-09-14T21:40:11;19.80;99.90
4090;DHT22;2059;48.538;12.146;2022-09-14T21:45:14;19.70;99.90
4090;DHT22;2059;48.538;12.146;2022-09-14T21:50:16;19.70;99.90
4090;DHT22;2059;48.538;12.146;2022-09-14T21:55:18;19.60;99.90
4090;DHT22;2059;48.538;12.146;2022-09-14T22:00:21;19.70;99.90
4090;DHT22;2059;48.538;12.146;2022-09-14T22:05:23;19.70;99.90
4090;DHT22;2059;48.538;12.146;2022-09-14T22:10:25;19.60;99.90
4090;DHT22;2059;48.538;12.146;2022-09-14T22:15:28;19.60;99.90
4090;DHT22;2059;48.538;12.146;2022-09-14T22:20:33;19.60;99.90
4090;DHT22;2059;48.538;12.146;2022-09-14T22:25:39;19.60;99.90
4090;DHT22;2059;48.538;12.146;2022-09-14T22:30:44;19.60;99.90
4090;DHT22;2059;48.538;12.146;2022-09-14T22:35:50;19.60;99.90
4090;DHT22;2059;48.538;12.146;2022-09-14T22:40:53;19.50;99.90
4090;DHT22;2059;48.538;12.146;2022-09-14T22:45:57;19.50;99.90
4090;DHT22;2059;48.538;12.146;2022-09-14T22:50:59;19.50;99.90
4090;DHT22;2059;48.538;12.146;2022-09-14T22:56:06;19.40;99.90
4090;DHT22;2059;48.538;12.146;2022-09-14T23:01:12;19.40;99.90
4090;DHT22;2059;48.538;12.146;2022-09-14T23:06:14;19.40;99.90
4090;DHT22;2059;48.538;12.146;2022-09-14T23:11:15;19.50;99.90
4090;DHT22;2059;48.538;12.146;2022-09-14T23:16:20;19.40;99.90
4090;DHT22;2059;48.538;12.146;2022-09-14T23:21:22;19.40;99.90
4090;DHT22;2059;48.538;12.146;2022-09-14T23:26:24;19.40;99.90
4090;DHT22;2059;48.538;12.146;2022-09-14T23:31:28;19.50;99.90
4090;DHT22;2059;48.538;12.146;2022-09-14T23:36:31;19.50;99.90
4090;DHT22;2059;48.538;12.146;2022-09-14T23:41:33;19.60;99.90
4090;DHT22;2059;48.538;12.146;2022-09-14T23:46:36;19.60;99.90
4090;DHT22;2059;48.538;12.146;2022-09-14T23:51:38;19.60;99.90
4090;DHT22;2059;48.538;12.146;2022-09-14T23:56:40;19.60;99.90
